sensor_id;sensor_type;location;lat;lon;timestamp;pressure;altitude;pressure_sealevel;temperature;humidity
42125;BME280;27787;44.594;11.046;2023-02-23T00:02:15;101010.50;;;11.55;97.64
42125;BME280;27787;44.594;11.046;2023-02-23T00:04:59;101007.00;;;11.56;97.59
42125;BME280;27787;44.594;11.046;2023-02-23T00:07:44;101007.94;;;11.60;97.54
42125;BME280;27787;44.594;11.046;2023-02-23T00:10:28;101013.22;;;11.60;97.36
42125;BME280;27787;44.594;11.046;2023-02-23T00:13:15;101025.50;;;11.58;97.74
42125;BME280;27787;44.594;11.046;2023-02-23T00:16:03;101023.75;;;11.57;97.51
42125;BME280;27787;44.594;11.046;2023-02-23T00:18:50;101023.72;;;11.50;97.68
42125;BME280;27787;44.594;11.046;2023-02-23T00:21:36;101020.09;;;11.39;98.55
42125;BME280;27787;44.594;11.046;2023-02-23T00:24:21;101027.06;;;11.31;99.22
42125;BME280;27787;44.594;11.046;2023-02-23T00:27:05;101021.75;;;11.28;99.63
42125;BME280;27787;44.594;11.046;2023-02-23T00:29:51;101022.63;;;11.27;99.87
42125;BME280;27787;44.594;11.046;2023-02-23T00:32:35;101013.84;;;11.31;99.61
42125;BME280;27787;44.594;11.046;2023-02-23T00:35:19;101016.50;;;11.31;99.82
42125;BME280;27787;44.594;11.046;2023-02-23T00:38:03;101005.03;;;11.31;99.62
42125;BME280;27787;44.594;11.046;2023-02-23T00:40:48;101001.56;;;11.35;99.82
42125;BME280;27787;44.594;11.046;2023-02-23T00:43:34;101002.44;;;11.37;98.88
42125;BME280;27787;44.594;11.046;2023-02-23T00:46:20;100999.81;;;11.35;98.79
42125;BME280;27787;44.594;11.046;2023-02-23T00:49:04;100997.97;;;11.28;98.77
42125;BME280;27787;44.594;11.046;2023-02-23T00:51:49;101003.22;;;11.23;99.39
42125;BME280;27787;44.594;11.046;2023-02-23T00:54:34;100994.41;;;11.23;99.85
42125;BME280;27787;44.594;11.046;2023-02-23T00:57:18;100991.75;;;11.21;100.00
42125;BME280;27787;44.594;11.046;2023-02-23T01:00:05;100989.13;;;11.25;100.00
42125;BME280;27787;44.594;11.046;2023-02-23T01:03:05;100992.75;;;11.34;100.00
42125;BME280;27787;44.594;11.046;2023-02-23T01:05:49;100997.19;;;11.41;99.33
42125;BME280;27787;44.594;11.046;2023-02-23T01:08:40;100996.31;;;11.44;99.16
42125;BME280;27787;44.594;11.046;2023-02-23T01:11:26;100988.44;;;11.48;98.98
42125;BME280;27787;44.594;11.046;2023-02-23T01:14:11;100985.81;;;11.51;98.54
42125;BME280;27787;44.594;11.046;2023-02-23T01:16:55;100985.81;;;11.51;97.95
42125;BME280;27787;44.594;11.046;2023-02-23T01:19:39;100986.72;;;11.55;98.40
42125;BME280;27787;44.594;11.046;2023-02-23T01:22:23;100980.56;;;11.58;97.97
42125;BME280;27787;44.594;11.046;2023-02-23T01:25:07;100982.31;;;11.56;97.21
42125;BME280;27787;44.594;11.046;2023-02-23T01:27:54;100977.88;;;11.48;97.36
42125;BME280;27787;44.594;11.046;2023-02-23T01:30:39;100977.81;;;11.41;97.80
42125;BME280;27787;44.594;11.046;2023-02-23T01:33:24;100977.78;;;11.36;98.38
42125;BME280;27787;44.594;11.046;2023-02-23T01:36:09;100978.66;;;11.35;98.97
42125;BME280;27787;44.594;11.046;2023-02-23T01:38:53;100982.19;;;11.34;98.47
42125;BME280;27787;44.594;11.046;2023-02-23T01:41:43;100978.59;;;11.31;99.00
42125;BME280;27787;44.594;11.046;2023-02-23T01:47:15;100980.31;;;11.24;98.60
42125;BME280;27787;44.594;11.046;2023-02-23T01:49:59;100978.56;;;11.21;99.38
42125;BME280;27787;44.594;11.046;2023-02-23T01:52:47;100974.97;;;11.18;99.30
42125;BME280;27787;44.594;11.046;2023-02-23T01:55:33;100974.97;;;11.18;99.47
42125;BME280;27787;44.594;11.046;2023-02-23T01:58:20;100971.44;;;11.14;99.62
42125;BME280;27787;44.594;11.046;2023-02-23T02:01:05;100974.06;;;11.13;99.56
42125;BME280;27787;44.594;11.046;2023-02-23T02:04:01;100970.53;;;11.11;99.66
42125;BME280;27787;44.594;11.046;2023-02-23T02:06:49;100969.63;;;11.07;99.92
42125;BME280;27787;44.594;11.046;2023-02-23T02:09:37;100957.25;;;11.05;99.89
42125;BME280;27787;44.594;11.046;2023-02-23T02:12:23;100961.63;;;11.00;100.00
42125;BME280;27787;44.594;11.046;2023-02-23T02:15:09;100966.88;;;10.97;100.00
42125;BME280;27787;44.594;11.046;2023-02-23T02:21:43;100960.63;;;10.88;100.00
42125;BME280;27787;44.594;11.046;2023-02-23T02:30:28;100953.59;;;10.90;100.00
42125;BME280;27787;44.594;11.046;2023-02-23T02:42:33;100942.13;;;10.87;100.00
42125;BME280;27787;44.594;11.046;2023-02-23T02:56:52;100945.44;;;10.66;100.00
42125;BME280;27787;44.594;11.046;2023-02-23T02:59:45;100946.44;;;10.77;99.81
42125;BME280;27787;44.594;11.046;2023-02-23T03:02:48;100950.03;;;10.82;98.24
42125;BME280;27787;44.594;11.046;2023-02-23T03:05:53;100946.47;;;10.79;97.88
42125;BME280;27787;44.594;11.046;2023-02-23T03:09:07;100943.78;;;10.73;96.94
42125;BME280;27787;44.594;11.046;2023-02-23T03:12:25;100941.91;;;10.64;97.12
42125;BME280;27787;44.594;11.046;2023-02-23T03:19:06;100947.19;;;10.62;97.75
42125;BME280;27787;44.594;11.046;2023-02-23T03:25:40;100960.50;;;10.73;96.23
42125;BME280;27787;44.594;11.046;2023-02-23T03:29:09;100954.34;;;10.76;96.18
42125;BME280;27787;44.594;11.046;2023-02-23T03:36:04;100949.94;;;10.73;95.61
42125;BME280;27787;44.594;11.046;2023-02-23T03:42:18;100953.47;;;10.74;97.22
42125;BME280;27787;44.594;11.046;2023-02-23T03:45:24;100952.50;;;10.66;97.97
42125;BME280;27787;44.594;11.046;2023-02-23T03:48:28;100949.84;;;10.66;97.34
42125;BME280;27787;44.594;11.046;2023-02-23T03:51:34;100947.16;;;10.61;97.03
42125;BME280;27787;44.594;11.046;2023-02-23T03:54:44;100946.28;;;10.59;96.89
42125;BME280;27787;44.594;11.046;2023-02-23T03:57:51;100956.00;;;10.63;97.86
42125;BME280;27787;44.594;11.046;2023-02-23T04:00:59;100957.84;;;10.73;97.06
42125;BME280;27787;44.594;11.046;2023-02-23T04:04:03;100959.59;;;10.71;96.71
42125;BME280;27787;44.594;11.046;2023-02-23T04:07:09;100958.72;;;10.72;97.59
42125;BME280;27787;44.594;11.046;2023-02-23T04:10:15;100957.84;;;10.70;97.48
42125;BME280;27787;44.594;11.046;2023-02-23T04:13:21;100962.28;;;10.76;97.34
42125;BME280;27787;44.594;11.046;2023-02-23T04:16:08;100971.09;;;10.78;96.73
42125;BME280;27787;44.594;11.046;2023-02-23T04:18:53;100971.94;;;10.74;96.84
42125;BME280;27787;44.594;11.046;2023-02-23T04:21:37;100969.19;;;10.61;98.16
42125;BME280;27787;44.594;11.046;2023-02-23T04:24:21;100958.50;;;10.51;99.82
42125;BME280;27787;44.594;11.046;2023-02-23T04:27:06;100961.16;;;10.52;100.00
42125;BME280;27787;44.594;11.046;2023-02-23T04:29:50;100970.91;;;10.56;100.00
42125;BME280;27787;44.594;11.046;2023-02-23T04:32:33;100968.28;;;10.61;100.00
42125;BME280;27787;44.594;11.046;2023-02-23T04:35:17;100968.31;;;10.64;100.00
42125;BME280;27787;44.594;11.046;2023-02-23T04:38:02;100959.53;;;10.65;100.00
42125;BME280;27787;44.594;11.046;2023-02-23T04:40:48;100967.50;;;10.68;100.00
42125;BME280;27787;44.594;11.046;2023-02-23T04:43:32;100957.00;;;10.76;100.00
42125;BME280;27787;44.594;11.046;2023-02-23T04:46:16;100971.94;;;10.75;100.00
42125;BME280;27787;44.594;11.046;2023-02-23T04:49:00;100969.28;;;10.71;100.00
42125;BME280;27787;44.594;11.046;2023-02-23T04:51:44;100967.50;;;10.70;100.00
42125;BME280;27787;44.594;11.046;2023-02-23T04:54:29;100968.31;;;10.62;100.00
42125;BME280;27787;44.594;11.046;2023-02-23T04:57:13;100964.75;;;10.57;100.00
42125;BME280;27787;44.594;11.046;2023-02-23T04:59:58;100958.50;;;10.52;100.00
42125;BME280;27787;44.594;11.046;2023-02-23T05:02:43;100967.25;;;10.45;100.00
42125;BME280;27787;44.594;11.046;2023-02-23T05:05:28;100971.56;;;10.39;100.00
42125;BME280;27787;44.594;11.046;2023-02-23T05:08:12;100971.53;;;10.36;100.00
42125;BME280;27787;44.594;11.046;2023-02-23T05:10:56;100971.41;;;10.25;100.00
42125;BME280;27787;44.594;11.046;2023-02-23T05:13:40;100974.81;;;10.19;100.00
42125;BME280;27787;44.594;11.046;2023-02-23T05:16:24;100966.81;;;10.13;100.00
42125;BME280;27787;44.594;11.046;2023-02-23T05:19:09;100975.56;;;10.09;100.00
42125;BME280;27787;44.594;11.046;2023-02-23T05:21:54;100979.91;;;10.04;100.00
42125;BME280;27787;44.594;11.046;2023-02-23T05:24:39;100971.00;;;9.94;100.00
42125;BME280;27787;44.594;11.046;2023-02-23T05:27:23;100964.72;;;9.88;100.00
42125;BME280;27787;44.594;11.046;2023-02-23T05:30:08;100974.38;;;9.86;100.00
42125;BME280;27787;44.594;11.046;2023-02-23T05:32:52;100977.00;;;9.84;100.00
42125;BME280;27787;44.594;11.046;2023-02-23T05:35:38;100971.69;;;9.83;100.00
42125;BME280;27787;44.594;11.046;2023-02-23T05:38:24;100968.16;;;9.79;100.00
42125;BME280;27787;44.594;11.046;2023-02-23T05:41:11;100968.09;;;9.76;100.00
42125;BME280;27787;44.594;11.046;2023-02-23T05:43:56;100962.78;;;9.74;100.00
42125;BME280;27787;44.594;11.046;2023-02-23T05:46:40;100976.81;;;9.70;100.00
42125;BME280;27787;44.594;11.046;2023-02-23T05:49:25;100965.34;;;9.68;100.00
42125;BME280;27787;44.594;11.046;2023-02-23T05:52:12;100975.88;;;9.65;100.00
42125;BME280;27787;44.594;11.046;2023-02-23T05:54:57;100973.16;;;9.62;100.00
42125;BME280;27787;44.594;11.046;2023-02-23T05:57:41;100972.34;;;9.65;100.00
42125;BME280;27787;44.594;11.046;2023-02-23T06:00:26;100981.25;;;9.74;100.00
42125;BME280;27787;44.594;11.046;2023-02-23T06:03:12;100969.94;;;9.83;100.00
42125;BME280;27787;44.594;11.046;2023-02-23T06:05:57;100969.19;;;9.92;100.00
42125;BME280;27787;44.594;11.046;2023-02-23T06:08:42;100971.94;;;10.01;100.00
42125;BME280;27787;44.594;11.046;2023-02-23T06:11:26;100980.00;;;10.13;100.00
42125;BME280;27787;44.594;11.046;2023-02-23T06:14:11;100982.81;;;10.22;100.00
42125;BME280;27787;44.594;11.046;2023-02-23T06:16:54;100981.97;;;10.28;100.00
42125;BME280;27787;44.594;11.046;2023-02-23T06:19:38;100986.44;;;10.32;100.00
42125;BME280;27787;44.594;11.046;2023-02-23T06:22:22;100993.56;;;10.41;100.00
42125;BME280;27787;44.594;11.046;2023-02-23T06:25:07;100993.63;;;10.44;100.00
42125;BME280;27787;44.594;11.046;2023-02-23T06:27:56;100999.81;;;10.47;100.00
42125;BME280;27787;44.594;11.046;2023-02-23T06:30:40;101004.22;;;10.47;100.00
42125;BME280;27787;44.594;11.046;2023-02-23T06:33:25;100995.38;;;10.42;100.00
42125;BME280;27787;44.594;11.046;2023-02-23T06:36:11;100997.94;;;10.39;100.00
42125;BME280;27787;44.594;11.046;2023-02-23T06:38:56;100996.19;;;10.41;100.00
42125;BME280;27787;44.594;11.046;2023-02-23T06:41:40;101000.69;;;10.46;100.00
42125;BME280;27787;44.594;11.046;2023-02-23T06:44:25;101004.22;;;10.47;100.00
42125;BME280;27787;44.594;11.046;2023-02-23T06:47:09;101015.63;;;10.44;100.00
42125;BME280;27787;44.594;11.046;2023-02-23T06:49:54;101013.78;;;10.39;100.00
42125;BME280;27787;44.594;11.046;2023-02-23T06:52:38;101020.88;;;10.43;100.00
42125;BME280;27787;44.594;11.046;2023-02-23T06:55:23;101013.91;;;10.48;100.00
42125;BME280;27787;44.594;11.046;2023-02-23T06:58:09;101020.09;;;10.51;100.00
42125;BME280;27787;44.594;11.046;2023-02-23T07:00:56;101022.81;;;10.56;100.00
42125;BME280;27787;44.594;11.046;2023-02-23T07:03:41;101033.38;;;10.59;100.00
42125;BME280;27787;44.594;11.046;2023-02-23T07:06:29;101025.50;;;10.63;100.00
42125;BME280;27787;44.594;11.046;2023-02-23T07:09:14;101034.38;;;10.69;100.00
42125;BME280;27787;44.594;11.046;2023-02-23T07:11:59;101031.75;;;10.70;100.00
42125;BME280;27787;44.594;11.046;2023-02-23T07:14:43;101035.28;;;10.69;100.00
42125;BME280;27787;44.594;11.046;2023-02-23T07:17:27;101034.38;;;10.69;100.00
42125;BME280;27787;44.594;11.046;2023-02-23T07:20:11;101037.03;;;10.69;100.00
42125;BME280;27787;44.594;11.046;2023-02-23T07:22:56;101036.97;;;10.67;100.00
42125;BME280;27787;44.594;11.046;2023-02-23T07:25:40;101040.56;;;10.69;100.00
42125;BME280;27787;44.594;11.046;2023-02-23T07:28:24;101043.22;;;10.71;100.00
42125;BME280;27787;44.594;11.046;2023-02-23T07:31:10;101039.72;;;10.73;100.00
42125;BME280;27787;44.594;11.046;2023-02-23T07:33:54;101041.59;;;10.83;100.00
42125;BME280;27787;44.594;11.046;2023-02-23T07:36:38;101048.66;;;10.86;100.00
42125;BME280;27787;44.594;11.046;2023-02-23T07:39:22;101047.78;;;10.88;100.00
42125;BME280;27787;44.594;11.046;2023-02-23T07:42:06;101053.94;;;10.87;100.00
42125;BME280;27787;44.594;11.046;2023-02-23T07:44:50;101044.25;;;10.86;100.00
42125;BME280;27787;44.594;11.046;2023-02-23T07:47:34;101052.19;;;10.89;100.00
42125;BME280;27787;44.594;11.046;2023-02-23T07:50:20;101057.50;;;10.91;100.00
42125;BME280;27787;44.594;11.046;2023-02-23T07:53:04;101059.28;;;10.93;100.00
42125;BME280;27787;44.594;11.046;2023-02-23T07:55:58;101060.22;;;10.97;100.00
42125;BME280;27787;44.594;11.046;2023-02-23T07:58:43;101049.72;;;11.05;100.00
42125;BME280;27787;44.594;11.046;2023-02-23T08:01:27;101053.31;;;11.13;100.00
42125;BME280;27787;44.594;11.046;2023-02-23T08:04:12;101054.22;;;11.15;100.00
42125;BME280;27787;44.594;11.046;2023-02-23T08:06:56;101061.25;;;11.11;100.00
42125;BME280;27787;44.594;11.046;2023-02-23T08:09:41;101049.75;;;11.08;100.00
42125;BME280;27787;44.594;11.046;2023-02-23T08:12:25;101060.34;;;11.08;100.00
42125;BME280;27787;44.594;11.046;2023-02-23T08:15:10;101059.44;;;11.07;100.00
42125;BME280;27787;44.594;11.046;2023-02-23T08:17:54;101055.94;;;11.08;100.00
42125;BME280;27787;44.594;11.046;2023-02-23T08:20:38;101052.44;;;11.11;100.00
42125;BME280;27787;44.594;11.046;2023-02-23T08:23:22;101058.66;;;11.19;100.00
42125;BME280;27787;44.594;11.046;2023-02-23T08:26:06;101057.84;;;11.25;100.00
42125;BME280;27787;44.594;11.046;2023-02-23T08:28:51;101068.53;;;11.37;100.00
42125;BME280;27787;44.594;11.046;2023-02-23T08:31:35;101062.38;;;11.36;100.00
42125;BME280;27787;44.594;11.046;2023-02-23T08:34:20;101065.00;;;11.35;100.00
42125;BME280;27787;44.594;11.046;2023-02-23T08:37:06;101059.72;;;11.35;100.00
42125;BME280;27787;44.594;11.046;2023-02-23T08:39:50;101066.75;;;11.36;100.00
42125;BME280;27787;44.594;11.046;2023-02-23T08:42:34;101066.75;;;11.36;100.00
42125;BME280;27787;44.594;11.046;2023-02-23T08:45:19;101057.06;;;11.33;100.00
42125;BME280;27787;44.594;11.046;2023-02-23T08:48:05;101060.53;;;11.32;100.00
42125;BME280;27787;44.594;11.046;2023-02-23T08:50:50;101066.78;;;11.39;100.00
42125;BME280;27787;44.594;11.046;2023-02-23T08:53:38;101068.63;;;11.49;100.00
42125;BME280;27787;44.594;11.046;2023-02-23T08:56:22;101063.38;;;11.55;100.00
42125;BME280;27787;44.594;11.046;2023-02-23T08:59:09;101076.66;;;11.60;100.00
42125;BME280;27787;44.594;11.046;2023-02-23T09:01:54;101070.44;;;11.53;100.00
42125;BME280;27787;44.594;11.046;2023-02-23T09:04:38;101067.75;;;11.48;100.00
42125;BME280;27787;44.594;11.046;2023-02-23T09:07:24;101074.75;;;11.45;100.00
42125;BME280;27787;44.594;11.046;2023-02-23T09:10:15;101068.63;;;11.46;100.00
42125;BME280;27787;44.594;11.046;2023-02-23T09:12:59;101074.81;;;11.49;100.00
42125;BME280;27787;44.594;11.046;2023-02-23T09:15:43;101067.81;;;11.58;100.00
42125;BME280;27787;44.594;11.046;2023-02-23T09:18:29;101078.44;;;11.64;100.00
42125;BME280;27787;44.594;11.046;2023-02-23T09:21:16;101077.56;;;11.63;100.00
42125;BME280;27787;44.594;11.046;2023-02-23T09:24:09;101077.56;;;11.62;100.00
42125;BME280;27787;44.594;11.046;2023-02-23T09:26:53;101074.88;;;11.59;100.00
42125;BME280;27787;44.594;11.046;2023-02-23T09:29:38;101080.16;;;11.57;100.00
42125;BME280;27787;44.594;11.046;2023-02-23T09:32:25;101083.72;;;11.59;100.00
42125;BME280;27787;44.594;11.046;2023-02-23T09:35:09;101081.97;;;11.61;100.00
42125;BME280;27787;44.594;11.046;2023-02-23T09:37:54;101086.41;;;11.70;100.00
42125;BME280;27787;44.594;11.046;2023-02-23T09:40:46;101083.84;;;11.76;100.00
42125;BME280;27787;44.594;11.046;2023-02-23T09:43:48;101085.66;;;11.80;100.00
42125;BME280;27787;44.594;11.046;2023-02-23T09:49:33;101084.00;;;11.96;100.00
42125;BME280;27787;44.594;11.046;2023-02-23T09:52:23;101081.44;;;12.05;100.00
42125;BME280;27787;44.594;11.046;2023-02-23T09:55:13;101087.59;;;12.07;100.00
42125;BME280;27787;44.594;11.046;2023-02-23T09:58:05;101092.00;;;12.05;100.00
42125;BME280;27787;44.594;11.046;2023-02-23T10:01:25;101090.25;;;12.04;100.00
42125;BME280;27787;44.594;11.046;2023-02-23T10:04:19;101085.84;;;12.09;100.00
42125;BME280;27787;44.594;11.046;2023-02-23T10:10:21;101071.78;;;12.13;100.00
42125;BME280;27787;44.594;11.046;2023-02-23T10:13:22;101076.22;;;12.16;100.00
42125;BME280;27787;44.594;11.046;2023-02-23T10:22:05;101081.56;;;12.26;100.00
42125;BME280;27787;44.594;11.046;2023-02-23T10:25:13;101085.13;;;12.34;100.00
42125;BME280;27787;44.594;11.046;2023-02-23T10:28:01;101086.03;;;12.38;100.00
42125;BME280;27787;44.594;11.046;2023-02-23T10:30:46;101091.34;;;12.41;100.00
42125;BME280;27787;44.594;11.046;2023-02-23T10:33:40;101086.94;;;12.45;100.00
42125;BME280;27787;44.594;11.046;2023-02-23T10:36:34;101086.06;;;12.44;100.00
42125;BME280;27787;44.594;11.046;2023-02-23T10:39:18;101094.88;;;12.40;100.00
42125;BME280;27787;44.594;11.046;2023-02-23T10:42:06;101083.41;;;12.44;100.00
42125;BME280;27787;44.594;11.046;2023-02-23T10:44:55;101085.19;;;12.48;100.00
42125;BME280;27787;44.594;11.046;2023-02-23T10:47:39;101087.88;;;12.51;100.00
42125;BME280;27787;44.594;11.046;2023-02-23T10:50:24;101086.13;;;12.53;100.00
42125;BME280;27787;44.594;11.046;2023-02-23T10:53:16;101080.81;;;12.59;100.00
42125;BME280;27787;44.594;11.046;2023-02-23T10:56:07;101083.47;;;12.62;100.00
42125;BME280;27787;44.594;11.046;2023-02-23T10:58:57;101080.00;;;12.76;100.00
42125;BME280;27787;44.594;11.046;2023-02-23T11:01:42;101080.97;;;12.90;100.00
42125;BME280;27787;44.594;11.046;2023-02-23T11:04:31;101081.84;;;12.95;100.00
42125;BME280;27787;44.594;11.046;2023-02-23T11:07:22;101084.50;;;12.90;98.36
42125;BME280;27787;44.594;11.046;2023-02-23T11:10:25;101088.91;;;12.91;95.42
42125;BME280;27787;44.594;11.046;2023-02-23T11:13:23;101088.00;;;12.86;94.00
42125;BME280;27787;44.594;11.046;2023-02-23T11:16:11;101078.28;;;12.82;94.48
42125;BME280;27787;44.594;11.046;2023-02-23T11:19:01;101079.16;;;12.89;94.25
42125;BME280;27787;44.594;11.046;2023-02-23T11:21:50;101075.69;;;13.05;94.31
42125;BME280;27787;44.594;11.046;2023-02-23T11:24:38;101068.66;;;13.16;95.18
42125;BME280;27787;44.594;11.046;2023-02-23T11:27:25;101064.28;;;13.31;95.21
42125;BME280;27787;44.594;11.046;2023-02-23T11:30:11;101069.56;;;13.40;94.77
42125;BME280;27787;44.594;11.046;2023-02-23T11:32:58;101060.75;;;13.36;94.43
42125;BME280;27787;44.594;11.046;2023-02-23T11:36:16;101059.88;;;13.33;94.26
42125;BME280;27787;44.594;11.046;2023-02-23T11:39:20;101057.19;;;13.25;94.23
42125;BME280;27787;44.594;11.046;2023-02-23T11:42:18;101057.19;;;13.20;93.83
42125;BME280;27787;44.594;11.046;2023-02-23T11:47:49;101046.53;;;13.14;91.89
42125;BME280;27787;44.594;11.046;2023-02-23T11:50:35;101044.81;;;13.21;91.25
42125;BME280;27787;44.594;11.046;2023-02-23T11:53:34;101047.50;;;13.30;90.09
42125;BME280;27787;44.594;11.046;2023-02-23T11:56:20;101037.75;;;13.34;89.96
42125;BME280;27787;44.594;11.046;2023-02-23T11:59:14;101043.06;;;13.37;90.16
42125;BME280;27787;44.594;11.046;2023-02-23T12:02:24;101041.28;;;13.37;89.74
42125;BME280;27787;44.594;11.046;2023-02-23T12:05:12;101035.97;;;13.39;90.58
42125;BME280;27787;44.594;11.046;2023-02-23T12:10:52;101024.50;;;13.55;90.14
42125;BME280;27787;44.594;11.046;2023-02-23T12:13:43;101029.81;;;13.58;88.11
42125;BME280;27787;44.594;11.046;2023-02-23T12:16:37;101022.72;;;13.60;86.63
42125;BME280;27787;44.594;11.046;2023-02-23T12:19:30;101028.91;;;13.65;85.82
42125;BME280;27787;44.594;11.046;2023-02-23T12:22:22;101018.31;;;13.56;85.36
42125;BME280;27787;44.594;11.046;2023-02-23T12:25:22;101017.44;;;13.57;87.45
42125;BME280;27787;44.594;11.046;2023-02-23T12:28:36;101020.94;;;13.67;87.74
42125;BME280;27787;44.594;11.046;2023-02-23T12:40:21;101013.84;;;13.78;84.42
42125;BME280;27787;44.594;11.046;2023-02-23T12:43:18;101018.28;;;13.73;84.31
42125;BME280;27787;44.594;11.046;2023-02-23T12:46:17;101009.44;;;13.78;84.66
42125;BME280;27787;44.594;11.046;2023-02-23T12:52:28;101000.56;;;13.96;83.59
42125;BME280;27787;44.594;11.046;2023-02-23T12:55:20;101011.13;;;14.04;82.81
42125;BME280;27787;44.594;11.046;2023-02-23T13:07:36;101008.44;;;14.21;81.59
42125;BME280;27787;44.594;11.046;2023-02-23T13:13:44;101007.56;;;14.20;79.94
42125;BME280;27787;44.594;11.046;2023-02-23T13:16:39;101005.81;;;14.11;78.42
42125;BME280;27787;44.594;11.046;2023-02-23T13:19:36;101003.19;;;14.01;76.88
42125;BME280;27787;44.594;11.046;2023-02-23T13:22:41;101004.09;;;13.97;77.92
42125;BME280;27787;44.594;11.046;2023-02-23T13:25:37;100995.25;;;13.95;79.02
42125;BME280;27787;44.594;11.046;2023-02-23T13:28:56;100997.03;;;13.96;79.20
42125;BME280;27787;44.594;11.046;2023-02-23T13:31:40;100994.34;;;13.99;79.09
42125;BME280;27787;44.594;11.046;2023-02-23T13:34:27;100994.34;;;14.08;79.47
42125;BME280;27787;44.594;11.046;2023-02-23T13:37:15;100989.00;;;14.14;79.14
42125;BME280;27787;44.594;11.046;2023-02-23T13:46:40;100998.72;;;14.16;80.15
42125;BME280;27787;44.594;11.046;2023-02-23T13:58:14;101004.00;;;14.24;79.16
42125;BME280;27787;44.594;11.046;2023-02-23T14:01:07;101011.09;;;14.16;79.02
42125;BME280;27787;44.594;11.046;2023-02-23T14:03:55;101000.50;;;14.11;79.94
42125;BME280;27787;44.594;11.046;2023-02-23T14:06:52;101004.91;;;14.22;80.49
42125;BME280;27787;44.594;11.046;2023-02-23T14:10:07;100994.25;;;14.29;80.48
42125;BME280;27787;44.594;11.046;2023-02-23T14:13:23;101004.84;;;14.35;79.87
42125;BME280;27787;44.594;11.046;2023-02-23T14:16:15;101001.31;;;14.36;78.06
42125;BME280;27787;44.594;11.046;2023-02-23T14:19:31;100999.53;;;14.29;77.23
42125;BME280;27787;44.594;11.046;2023-02-23T14:22:17;100998.66;;;14.29;77.43
42125;BME280;27787;44.594;11.046;2023-02-23T14:31:19;101001.41;;;14.12;77.18
42125;BME280;27787;44.594;11.046;2023-02-23T14:34:11;100999.63;;;14.05;78.24
42125;BME280;27787;44.594;11.046;2023-02-23T14:37:11;100999.66;;;13.97;78.85
42125;BME280;27787;44.594;11.046;2023-02-23T14:42:57;100999.69;;;13.94;78.85
42125;BME280;27787;44.594;11.046;2023-02-23T14:45:45;101002.34;;;13.94;79.26
42125;BME280;27787;44.594;11.046;2023-02-23T14:48:29;100999.69;;;13.96;79.37
42125;BME280;27787;44.594;11.046;2023-02-23T14:51:20;100996.09;;;14.03;79.48
42125;BME280;27787;44.594;11.046;2023-02-23T14:54:24;101002.31;;;14.02;79.00
42125;BME280;27787;44.594;11.046;2023-02-23T15:00:28;101000.53;;;14.02;79.59
42125;BME280;27787;44.594;11.046;2023-02-23T15:03:11;101000.53;;;14.04;79.46
42125;BME280;27787;44.594;11.046;2023-02-23T15:05:58;101005.81;;;14.05;78.98
42125;BME280;27787;44.594;11.046;2023-02-23T15:08:43;100996.09;;;14.06;78.85
42125;BME280;27787;44.594;11.046;2023-02-23T15:11:28;101002.31;;;14.06;78.64
42125;BME280;27787;44.594;11.046;2023-02-23T15:14:15;100999.66;;;14.06;78.66
42125;BME280;27787;44.594;11.046;2023-02-23T15:17:00;100997.88;;;14.07;78.84
42125;BME280;27787;44.594;11.046;2023-02-23T15:19:47;101006.72;;;14.09;79.05
42125;BME280;27787;44.594;11.046;2023-02-23T15:22:34;100999.63;;;14.09;79.20
42125;BME280;27787;44.594;11.046;2023-02-23T15:25:23;100997.84;;;14.11;79.02
42125;BME280;27787;44.594;11.046;2023-02-23T15:28:24;100995.19;;;14.14;78.92
42125;BME280;27787;44.594;11.046;2023-02-23T15:31:09;100989.88;;;14.21;79.07
42125;BME280;27787;44.594;11.046;2023-02-23T15:33:56;100986.31;;;14.25;79.28
42125;BME280;27787;44.594;11.046;2023-02-23T15:36:42;100988.06;;;14.27;79.31
42125;BME280;27787;44.594;11.046;2023-02-23T15:39:34;100988.94;;;14.32;79.06
42125;BME280;27787;44.594;11.046;2023-02-23T15:42:51;100984.50;;;14.33;78.36
42125;BME280;27787;44.594;11.046;2023-02-23T15:45:39;100980.06;;;14.30;78.47
42125;BME280;27787;44.594;11.046;2023-02-23T15:48:37;100980.09;;;14.26;78.46
42125;BME280;27787;44.594;11.046;2023-02-23T15:51:31;100979.22;;;14.22;78.76
42125;BME280;27787;44.594;11.046;2023-02-23T15:54:25;100970.38;;;14.17;78.86
42125;BME280;27787;44.594;11.046;2023-02-23T15:57:19;100981.06;;;14.09;79.35
42125;BME280;27787;44.594;11.046;2023-02-23T16:00:15;100979.28;;;14.05;79.63
42125;BME280;27787;44.594;11.046;2023-02-23T16:03:04;100976.63;;;14.04;79.88
42125;BME280;27787;44.594;11.046;2023-02-23T16:06:21;100978.41;;;14.03;79.90
42125;BME280;27787;44.594;11.046;2023-02-23T16:12:11;100976.69;;;13.96;79.49
42125;BME280;27787;44.594;11.046;2023-02-23T16:15:27;100981.97;;;13.92;80.12
42125;BME280;27787;44.594;11.046;2023-02-23T16:18:19;100982.00;;;13.88;80.46
42125;BME280;27787;44.594;11.046;2023-02-23T16:21:06;100983.78;;;13.86;80.58
42125;BME280;27787;44.594;11.046;2023-02-23T16:23:53;100977.59;;;13.86;80.99
42125;BME280;27787;44.594;11.046;2023-02-23T16:26:44;100982.00;;;13.88;81.10
42125;BME280;27787;44.594;11.046;2023-02-23T16:29:37;100983.78;;;13.86;81.40
42125;BME280;27787;44.594;11.046;2023-02-23T16:32:24;100980.22;;;13.86;81.90